Terminal Aerodrome Forecast
Issued by NWS

Home | Current Version | Previous Version | Graphics & Text | Print | Product List | Glossary On
Versions: 1 2 3 4 5 6 7 8 9 10 11 12 13 14 15 16 17 18 19 20 21 22 23 24 25
000
FTUS43 KGRB 191802 AAA
TAFMTW
TAF AMD
KMTW 191802Z 1918/2018 VRB03KT P6SM OVC015
     FM192000 10010KT P6SM OVC035
      TEMPO 1923/2002 3SM -TSRA BKN020CB
     FM200200 03013G23KT P6SM OVC035
     FM200800 02011G18KT P6SM BKN050
     FM201500 03010G15KT P6SM SCT020 BKN150=

USA.gov is the U.S. government's official web portal to all federal, state and local government web resources and services.